sensor_id;sensor_type;location;lat;lon;timestamp;P1;durP1;ratioP1;P2;durP2;ratioP2
5323;SDS011;2684;48.154;11.538;2022-07-09T00:01:21;13.20;;;12.00;;
5323;SDS011;2684;48.154;11.538;2022-07-09T00:03:49;13.43;;;12.10;;
5323;SDS011;2684;48.154;11.538;2022-07-09T00:06:17;12.90;;;12.00;;
5323;SDS011;2684;48.154;11.538;2022-07-09T00:08:44;14.20;;;12.10;;
5323;SDS011;2684;48.154;11.538;2022-07-09T00:11:11;13.03;;;11.80;;
5323;SDS011;2684;48.154;11.538;2022-07-09T00:13:38;13.77;;;12.37;;
5323;SDS011;2684;48.154;11.538;2022-07-09T00:16:05;13.23;;;12.23;;
5323;SDS011;2684;48.154;11.538;2022-07-09T00:18:32;12.87;;;11.90;;
5323;SDS011;2684;48.154;11.538;2022-07-09T00:21:00;12.70;;;11.77;;
5323;SDS011;2684;48.154;11.538;2022-07-09T00:23:27;13.13;;;12.03;;
5323;SDS011;2684;48.154;11.538;2022-07-09T00:25:54;12.90;;;12.00;;
5323;SDS011;2684;48.154;11.538;2022-07-09T00:28:21;12.40;;;11.60;;
5323;SDS011;2684;48.154;11.538;2022-07-09T00:30:47;13.03;;;12.03;;
5323;SDS011;2684;48.154;11.538;2022-07-09T00:33:14;13.33;;;12.23;;
5323;SDS011;2684;48.154;11.538;2022-07-09T00:35:41;13.30;;;12.20;;
5323;SDS011;2684;48.154;11.538;2022-07-09T00:38:09;12.97;;;11.80;;
5323;SDS011;2684;48.154;11.538;2022-07-09T00:40:36;12.57;;;11.73;;
5323;SDS011;2684;48.154;11.538;2022-07-09T00:43:03;13.20;;;12.10;;
5323;SDS011;2684;48.154;11.538;2022-07-09T00:45:40;12.70;;;11.80;;
5323;SDS011;2684;48.154;11.538;2022-07-09T00:48:07;12.40;;;11.60;;
5323;SDS011;2684;48.154;11.538;2022-07-09T00:50:34;12.60;;;11.67;;
5323;SDS011;2684;48.154;11.538;2022-07-09T00:53:01;12.97;;;11.97;;
5323;SDS011;2684;48.154;11.538;2022-07-09T00:55:29;12.80;;;11.80;;
5323;SDS011;2684;48.154;11.538;2022-07-09T00:57:56;12.97;;;11.97;;
5323;SDS011;2684;48.154;11.538;2022-07-09T01:00:23;12.63;;;11.63;;
5323;SDS011;2684;48.154;11.538;2022-07-09T01:02:50;12.47;;;11.63;;
5323;SDS011;2684;48.154;11.538;2022-07-09T01:05:16;12.57;;;11.67;;
5323;SDS011;2684;48.154;11.538;2022-07-09T01:07:43;12.80;;;11.80;;
5323;SDS011;2684;48.154;11.538;2022-07-09T01:10:11;12.60;;;11.70;;
5323;SDS011;2684;48.154;11.538;2022-07-09T01:12:39;13.00;;;12.00;;
5323;SDS011;2684;48.154;11.538;2022-07-09T01:15:06;12.33;;;11.53;;
5323;SDS011;2684;48.154;11.538;2022-07-09T01:17:36;13.10;;;11.73;;
5323;SDS011;2684;48.154;11.538;2022-07-09T01:20:04;13.10;;;12.10;;
5323;SDS011;2684;48.154;11.538;2022-07-09T01:22:33;13.23;;;12.23;;
5323;SDS011;2684;48.154;11.538;2022-07-09T01:25:00;13.20;;;12.20;;
5323;SDS011;2684;48.154;11.538;2022-07-09T01:27:33;15.80;;;13.73;;
5323;SDS011;2684;48.154;11.538;2022-07-09T01:29:59;12.93;;;11.83;;
5323;SDS011;2684;48.154;11.538;2022-07-09T01:32:26;13.27;;;12.17;;
5323;SDS011;2684;48.154;11.538;2022-07-09T01:34:53;12.80;;;11.90;;
5323;SDS011;2684;48.154;11.538;2022-07-09T01:37:20;12.80;;;11.80;;
5323;SDS011;2684;48.154;11.538;2022-07-09T01:39:48;14.03;;;12.57;;
5323;SDS011;2684;48.154;11.538;2022-07-09T01:42:18;12.70;;;11.60;;
5323;SDS011;2684;48.154;11.538;2022-07-09T01:44:46;13.63;;;12.40;;
5323;SDS011;2684;48.154;11.538;2022-07-09T01:47:14;12.80;;;11.97;;
5323;SDS011;2684;48.154;11.538;2022-07-09T01:49:41;13.17;;;12.07;;
5323;SDS011;2684;48.154;11.538;2022-07-09T01:52:08;12.63;;;11.73;;
5323;SDS011;2684;48.154;11.538;2022-07-09T01:54:35;13.10;;;12.10;;
5323;SDS011;2684;48.154;11.538;2022-07-09T01:57:03;12.70;;;11.80;;
5323;SDS011;2684;48.154;11.538;2022-07-09T01:59:30;13.47;;;12.10;;
5323;SDS011;2684;48.154;11.538;2022-07-09T02:01:57;12.83;;;11.93;;
5323;SDS011;2684;48.154;11.538;2022-07-09T02:04:24;12.73;;;11.80;;
5323;SDS011;2684;48.154;11.538;2022-07-09T02:06:51;13.00;;;11.90;;
5323;SDS011;2684;48.154;11.538;2022-07-09T02:09:18;12.67;;;11.77;;
5323;SDS011;2684;48.154;11.538;2022-07-09T02:11:45;12.80;;;11.90;;
5323;SDS011;2684;48.154;11.538;2022-07-09T02:14:13;13.33;;;12.20;;
5323;SDS011;2684;48.154;11.538;2022-07-09T02:16:40;12.30;;;11.30;;
5323;SDS011;2684;48.154;11.538;2022-07-09T02:19:07;12.37;;;11.37;;
5323;SDS011;2684;48.154;11.538;2022-07-09T02:21:34;13.00;;;11.90;;
5323;SDS011;2684;48.154;11.538;2022-07-09T02:24:01;13.33;;;12.23;;
5323;SDS011;2684;48.154;11.538;2022-07-09T02:26:28;12.77;;;11.53;;
5323;SDS011;2684;48.154;11.538;2022-07-09T02:28:55;12.63;;;11.73;;
5323;SDS011;2684;48.154;11.538;2022-07-09T02:31:24;12.87;;;11.83;;
5323;SDS011;2684;48.154;11.538;2022-07-09T02:33:51;12.13;;;11.33;;
5323;SDS011;2684;48.154;11.538;2022-07-09T02:36:18;13.00;;;12.00;;
5323;SDS011;2684;48.154;11.538;2022-07-09T02:38:45;12.30;;;11.33;;
5323;SDS011;2684;48.154;11.538;2022-07-09T02:41:12;13.53;;;12.30;;
5323;SDS011;2684;48.154;11.538;2022-07-09T02:43:39;12.40;;;11.40;;
5323;SDS011;2684;48.154;11.538;2022-07-09T02:46:07;13.33;;;12.13;;
5323;SDS011;2684;48.154;11.538;2022-07-09T02:48:36;12.83;;;11.73;;
5323;SDS011;2684;48.154;11.538;2022-07-09T02:51:03;12.27;;;11.33;;
5323;SDS011;2684;48.154;11.538;2022-07-09T02:53:30;13.13;;;11.90;;
5323;SDS011;2684;48.154;11.538;2022-07-09T02:55:57;12.80;;;11.80;;
5323;SDS011;2684;48.154;11.538;2022-07-09T02:58:24;12.20;;;11.30;;
5323;SDS011;2684;48.154;11.538;2022-07-09T03:00:51;12.37;;;11.47;;
5323;SDS011;2684;48.154;11.538;2022-07-09T03:03:17;12.23;;;11.43;;
5323;SDS011;2684;48.154;11.538;2022-07-09T03:05:46;13.57;;;12.47;;
5323;SDS011;2684;48.154;11.538;2022-07-09T03:08:12;12.27;;;11.37;;
5323;SDS011;2684;48.154;11.538;2022-07-09T03:10:39;15.03;;;11.70;;
5323;SDS011;2684;48.154;11.538;2022-07-09T03:13:06;12.20;;;11.40;;
5323;SDS011;2684;48.154;11.538;2022-07-09T03:15:33;12.20;;;11.30;;
5323;SDS011;2684;48.154;11.538;2022-07-09T03:18:00;11.97;;;11.17;;
5323;SDS011;2684;48.154;11.538;2022-07-09T03:20:27;12.43;;;11.47;;
5323;SDS011;2684;48.154;11.538;2022-07-09T03:22:55;12.30;;;11.40;;
5323;SDS011;2684;48.154;11.538;2022-07-09T03:25:22;13.27;;;11.10;;
5323;SDS011;2684;48.154;11.538;2022-07-09T03:27:48;13.30;;;12.10;;
5323;SDS011;2684;48.154;11.538;2022-07-09T03:30:15;12.40;;;11.60;;
5323;SDS011;2684;48.154;11.538;2022-07-09T03:32:42;13.27;;;12.27;;
5323;SDS011;2684;48.154;11.538;2022-07-09T03:35:09;12.33;;;11.30;;
5323;SDS011;2684;48.154;11.538;2022-07-09T03:37:36;13.20;;;11.67;;
5323;SDS011;2684;48.154;11.538;2022-07-09T03:40:05;13.13;;;12.03;;
5323;SDS011;2684;48.154;11.538;2022-07-09T03:42:32;12.77;;;11.83;;
5323;SDS011;2684;48.154;11.538;2022-07-09T03:44:59;12.73;;;11.73;;
5323;SDS011;2684;48.154;11.538;2022-07-09T03:47:26;13.80;;;12.70;;
5323;SDS011;2684;48.154;11.538;2022-07-09T03:49:53;14.17;;;12.77;;
5323;SDS011;2684;48.154;11.538;2022-07-09T03:52:20;20.10;;;14.50;;
5323;SDS011;2684;48.154;11.538;2022-07-09T03:54:47;16.13;;;14.60;;
5323;SDS011;2684;48.154;11.538;2022-07-09T03:57:15;13.67;;;12.27;;
5323;SDS011;2684;48.154;11.538;2022-07-09T03:59:42;14.70;;;13.30;;
5323;SDS011;2684;48.154;11.538;2022-07-09T04:02:09;12.90;;;11.90;;
5323;SDS011;2684;48.154;11.538;2022-07-09T04:04:36;15.53;;;13.83;;
5323;SDS011;2684;48.154;11.538;2022-07-09T04:07:03;14.27;;;13.07;;
5323;SDS011;2684;48.154;11.538;2022-07-09T04:09:30;13.47;;;12.43;;
5323;SDS011;2684;48.154;11.538;2022-07-09T04:11:57;13.37;;;12.17;;
5323;SDS011;2684;48.154;11.538;2022-07-09T04:14:25;12.57;;;11.67;;
5323;SDS011;2684;48.154;11.538;2022-07-09T04:16:52;12.90;;;11.90;;
5323;SDS011;2684;48.154;11.538;2022-07-09T04:19:19;13.07;;;11.97;;
5323;SDS011;2684;48.154;11.538;2022-07-09T04:21:46;13.00;;;12.13;;
5323;SDS011;2684;48.154;11.538;2022-07-09T04:24:13;12.80;;;11.80;;
5323;SDS011;2684;48.154;11.538;2022-07-09T04:26:40;13.00;;;12.10;;
5323;SDS011;2684;48.154;11.538;2022-07-09T04:29:07;12.77;;;11.87;;
5323;SDS011;2684;48.154;11.538;2022-07-09T04:31:37;12.87;;;11.97;;
5323;SDS011;2684;48.154;11.538;2022-07-09T04:34:03;12.80;;;11.90;;
5323;SDS011;2684;48.154;11.538;2022-07-09T04:36:31;13.17;;;12.07;;
5323;SDS011;2684;48.154;11.538;2022-07-09T04:38:57;13.00;;;12.10;;
5323;SDS011;2684;48.154;11.538;2022-07-09T04:41:24;12.67;;;11.77;;
5323;SDS011;2684;48.154;11.538;2022-07-09T04:43:51;13.37;;;12.27;;
5323;SDS011;2684;48.154;11.538;2022-07-09T04:46:18;13.07;;;12.03;;
5323;SDS011;2684;48.154;11.538;2022-07-09T04:48:47;13.10;;;12.00;;
5323;SDS011;2684;48.154;11.538;2022-07-09T04:51:14;12.70;;;11.80;;
5323;SDS011;2684;48.154;11.538;2022-07-09T04:53:41;13.37;;;12.10;;
5323;SDS011;2684;48.154;11.538;2022-07-09T04:56:08;13.33;;;12.23;;
5323;SDS011;2684;48.154;11.538;2022-07-09T04:58:35;12.93;;;12.00;;
5323;SDS011;2684;48.154;11.538;2022-07-09T05:01:02;13.23;;;12.20;;
5323;SDS011;2684;48.154;11.538;2022-07-09T05:03:29;13.37;;;12.37;;
5323;SDS011;2684;48.154;11.538;2022-07-09T05:05:58;13.53;;;12.30;;
5323;SDS011;2684;48.154;11.538;2022-07-09T05:08:25;12.33;;;11.43;;
5323;SDS011;2684;48.154;11.538;2022-07-09T05:10:52;13.50;;;12.40;;
5323;SDS011;2684;48.154;11.538;2022-07-09T05:13:19;13.47;;;12.27;;
5323;SDS011;2684;48.154;11.538;2022-07-09T05:15:46;15.30;;;13.10;;
5323;SDS011;2684;48.154;11.538;2022-07-09T05:18:12;13.70;;;12.60;;
5323;SDS011;2684;48.154;11.538;2022-07-09T05:20:39;13.63;;;12.40;;
5323;SDS011;2684;48.154;11.538;2022-07-09T05:23:08;13.83;;;12.83;;
5323;SDS011;2684;48.154;11.538;2022-07-09T05:25:36;13.00;;;12.00;;
5323;SDS011;2684;48.154;11.538;2022-07-09T05:34:43;13.60;;;12.50;;
5323;SDS011;2684;48.154;11.538;2022-07-09T05:37:10;13.83;;;12.60;;
5323;SDS011;2684;48.154;11.538;2022-07-09T05:39:38;14.37;;;12.80;;
5323;SDS011;2684;48.154;11.538;2022-07-09T05:42:05;13.10;;;12.20;;
5323;SDS011;2684;48.154;11.538;2022-07-09T05:44:33;14.37;;;13.20;;
5323;SDS011;2684;48.154;11.538;2022-07-09T05:46:59;13.17;;;12.17;;
5323;SDS011;2684;48.154;11.538;2022-07-09T05:49:27;13.43;;;12.33;;
5323;SDS011;2684;48.154;11.538;2022-07-09T05:51:54;13.23;;;12.07;;
5323;SDS011;2684;48.154;11.538;2022-07-09T05:54:21;13.10;;;12.20;;
5323;SDS011;2684;48.154;11.538;2022-07-09T05:56:50;13.43;;;12.10;;
5323;SDS011;2684;48.154;11.538;2022-07-09T05:59:17;13.97;;;12.80;;
5323;SDS011;2684;48.154;11.538;2022-07-09T06:01:44;18.67;;;13.10;;
5323;SDS011;2684;48.154;11.538;2022-07-09T06:04:10;13.67;;;12.63;;
5323;SDS011;2684;48.154;11.538;2022-07-09T06:06:37;15.30;;;14.00;;
5323;SDS011;2684;48.154;11.538;2022-07-09T06:09:04;13.63;;;12.53;;
5323;SDS011;2684;48.154;11.538;2022-07-09T06:11:31;24.57;;;18.40;;
5323;SDS011;2684;48.154;11.538;2022-07-09T06:14:00;15.87;;;14.47;;
5323;SDS011;2684;48.154;11.538;2022-07-09T06:16:27;14.93;;;13.63;;
5323;SDS011;2684;48.154;11.538;2022-07-09T06:18:54;16.20;;;14.63;;
5323;SDS011;2684;48.154;11.538;2022-07-09T06:21:20;13.83;;;12.73;;
5323;SDS011;2684;48.154;11.538;2022-07-09T06:23:47;13.97;;;12.60;;
5323;SDS011;2684;48.154;11.538;2022-07-09T06:26:14;14.03;;;12.90;;
5323;SDS011;2684;48.154;11.538;2022-07-09T06:28:41;14.40;;;13.20;;
5323;SDS011;2684;48.154;11.538;2022-07-09T06:31:09;13.50;;;12.40;;
5323;SDS011;2684;48.154;11.538;2022-07-09T06:33:36;13.47;;;12.37;;
5323;SDS011;2684;48.154;11.538;2022-07-09T06:36:03;13.63;;;12.63;;
5323;SDS011;2684;48.154;11.538;2022-07-09T06:38:30;14.20;;;13.10;;
5323;SDS011;2684;48.154;11.538;2022-07-09T06:40:57;13.90;;;12.80;;
5323;SDS011;2684;48.154;11.538;2022-07-09T06:43:24;14.13;;;13.00;;
5323;SDS011;2684;48.154;11.538;2022-07-09T06:45:51;15.10;;;13.80;;
5323;SDS011;2684;48.154;11.538;2022-07-09T06:48:19;13.80;;;12.80;;
5323;SDS011;2684;48.154;11.538;2022-07-09T06:50:46;13.50;;;12.50;;
5323;SDS011;2684;48.154;11.538;2022-07-09T06:53:13;14.30;;;13.10;;
5323;SDS011;2684;48.154;11.538;2022-07-09T06:55:40;13.90;;;12.70;;
5323;SDS011;2684;48.154;11.538;2022-07-09T06:58:08;13.83;;;12.67;;
5323;SDS011;2684;48.154;11.538;2022-07-09T07:00:35;14.13;;;12.90;;
5323;SDS011;2684;48.154;11.538;2022-07-09T07:03:02;13.23;;;12.20;;
5323;SDS011;2684;48.154;11.538;2022-07-09T07:05:30;14.63;;;13.30;;
5323;SDS011;2684;48.154;11.538;2022-07-09T07:07:57;13.60;;;12.70;;
5323;SDS011;2684;48.154;11.538;2022-07-09T07:10:24;13.90;;;12.90;;
5323;SDS011;2684;48.154;11.538;2022-07-09T07:12:51;14.80;;;13.50;;
5323;SDS011;2684;48.154;11.538;2022-07-09T07:15:19;13.60;;;12.50;;
5323;SDS011;2684;48.154;11.538;2022-07-09T07:17:46;14.63;;;13.23;;
5323;SDS011;2684;48.154;11.538;2022-07-09T07:20:13;13.43;;;12.43;;
5323;SDS011;2684;48.154;11.538;2022-07-09T07:22:44;14.00;;;12.90;;
5323;SDS011;2684;48.154;11.538;2022-07-09T07:25:11;13.97;;;12.97;;
5323;SDS011;2684;48.154;11.538;2022-07-09T07:27:37;13.33;;;12.43;;
5323;SDS011;2684;48.154;11.538;2022-07-09T07:30:05;13.77;;;12.67;;
5323;SDS011;2684;48.154;11.538;2022-07-09T07:32:32;13.40;;;12.30;;
5323;SDS011;2684;48.154;11.538;2022-07-09T07:34:59;17.27;;;15.30;;
5323;SDS011;2684;48.154;11.538;2022-07-09T07:37:27;16.63;;;14.73;;
5323;SDS011;2684;48.154;11.538;2022-07-09T07:39:57;16.37;;;14.37;;
5323;SDS011;2684;48.154;11.538;2022-07-09T07:42:24;13.57;;;12.67;;
5323;SDS011;2684;48.154;11.538;2022-07-09T07:44:51;13.60;;;12.60;;
5323;SDS011;2684;48.154;11.538;2022-07-09T07:47:18;13.47;;;12.57;;
5323;SDS011;2684;48.154;11.538;2022-07-09T07:49:45;13.63;;;12.63;;
5323;SDS011;2684;48.154;11.538;2022-07-09T07:54:45;16.30;;;14.70;;
5323;SDS011;2684;48.154;11.538;2022-07-09T07:57:13;15.27;;;13.77;;
5323;SDS011;2684;48.154;11.538;2022-07-09T07:59:40;14.27;;;13.07;;
5323;SDS011;2684;48.154;11.538;2022-07-09T08:02:07;13.87;;;12.87;;
5323;SDS011;2684;48.154;11.538;2022-07-09T08:04:34;12.67;;;11.80;;
5323;SDS011;2684;48.154;11.538;2022-07-09T08:07:00;14.87;;;13.57;;
5323;SDS011;2684;48.154;11.538;2022-07-09T08:09:27;16.17;;;14.73;;
5323;SDS011;2684;48.154;11.538;2022-07-09T08:11:55;16.80;;;15.30;;
5323;SDS011;2684;48.154;11.538;2022-07-09T08:14:23;13.70;;;12.70;;
5323;SDS011;2684;48.154;11.538;2022-07-09T08:16:50;15.33;;;13.73;;
5323;SDS011;2684;48.154;11.538;2022-07-09T08:19:18;14.70;;;13.50;;
5323;SDS011;2684;48.154;11.538;2022-07-09T08:21:45;14.00;;;12.90;;
5323;SDS011;2684;48.154;11.538;2022-07-09T08:24:11;14.40;;;13.00;;
5323;SDS011;2684;48.154;11.538;2022-07-09T08:26:38;14.17;;;13.07;;
5323;SDS011;2684;48.154;11.538;2022-07-09T08:29:05;14.70;;;13.30;;
5323;SDS011;2684;48.154;11.538;2022-07-09T08:31:33;13.80;;;12.80;;
5323;SDS011;2684;48.154;11.538;2022-07-09T08:34:00;13.47;;;12.30;;
5323;SDS011;2684;48.154;11.538;2022-07-09T08:36:27;13.43;;;12.43;;
5323;SDS011;2684;48.154;11.538;2022-07-09T08:38:54;13.60;;;12.50;;
5323;SDS011;2684;48.154;11.538;2022-07-09T08:41:21;13.87;;;12.87;;
5323;SDS011;2684;48.154;11.538;2022-07-09T08:43:50;13.53;;;12.63;;
5323;SDS011;2684;48.154;11.538;2022-07-09T08:46:18;13.80;;;12.70;;
5323;SDS011;2684;48.154;11.538;2022-07-09T08:48:46;14.70;;;13.30;;
5323;SDS011;2684;48.154;11.538;2022-07-09T08:51:13;13.40;;;12.33;;
5323;SDS011;2684;48.154;11.538;2022-07-09T08:53:40;13.70;;;12.63;;
5323;SDS011;2684;48.154;11.538;2022-07-09T08:56:08;19.93;;;13.27;;
5323;SDS011;2684;48.154;11.538;2022-07-09T08:58:36;14.30;;;13.10;;
5323;SDS011;2684;48.154;11.538;2022-07-09T09:01:03;14.47;;;13.07;;
5323;SDS011;2684;48.154;11.538;2022-07-09T09:03:31;14.57;;;13.07;;
5323;SDS011;2684;48.154;11.538;2022-07-09T09:06:00;13.83;;;12.63;;
5323;SDS011;2684;48.154;11.538;2022-07-09T09:08:32;13.40;;;12.50;;
5323;SDS011;2684;48.154;11.538;2022-07-09T09:11:01;13.80;;;12.70;;
5323;SDS011;2684;48.154;11.538;2022-07-09T09:13:28;13.77;;;12.47;;
5323;SDS011;2684;48.154;11.538;2022-07-09T09:16:02;14.00;;;12.70;;
5323;SDS011;2684;48.154;11.538;2022-07-09T09:18:30;14.93;;;13.63;;
5323;SDS011;2684;48.154;11.538;2022-07-09T09:21:02;14.40;;;13.20;;
5323;SDS011;2684;48.154;11.538;2022-07-09T09:23:38;13.43;;;12.53;;
5323;SDS011;2684;48.154;11.538;2022-07-09T09:26:09;14.23;;;13.03;;
5323;SDS011;2684;48.154;11.538;2022-07-09T09:28:47;13.80;;;12.70;;
5323;SDS011;2684;48.154;11.538;2022-07-09T09:31:21;13.43;;;12.43;;
5323;SDS011;2684;48.154;11.538;2022-07-09T09:33:50;13.90;;;12.70;;
5323;SDS011;2684;48.154;11.538;2022-07-09T09:36:35;13.80;;;12.70;;
5323;SDS011;2684;48.154;11.538;2022-07-09T09:39:07;13.10;;;12.17;;
5323;SDS011;2684;48.154;11.538;2022-07-09T09:41:35;13.50;;;12.50;;
5323;SDS011;2684;48.154;11.538;2022-07-09T09:44:03;14.17;;;12.53;;
5323;SDS011;2684;48.154;11.538;2022-07-09T09:46:34;13.40;;;12.40;;
5323;SDS011;2684;48.154;11.538;2022-07-09T09:49:02;14.60;;;13.40;;
5323;SDS011;2684;48.154;11.538;2022-07-09T09:51:33;13.80;;;12.57;;
5323;SDS011;2684;48.154;11.538;2022-07-09T09:54:03;13.97;;;12.80;;
5323;SDS011;2684;48.154;11.538;2022-07-09T09:56:30;13.20;;;12.30;;
5323;SDS011;2684;48.154;11.538;2022-07-09T09:58:58;13.37;;;12.37;;
5323;SDS011;2684;48.154;11.538;2022-07-09T10:01:27;12.80;;;12.00;;
5323;SDS011;2684;48.154;11.538;2022-07-09T10:03:54;13.80;;;12.70;;
5323;SDS011;2684;48.154;11.538;2022-07-09T10:06:21;13.60;;;12.43;;
5323;SDS011;2684;48.154;11.538;2022-07-09T10:08:50;14.10;;;13.10;;
5323;SDS011;2684;48.154;11.538;2022-07-09T10:11:17;14.20;;;13.20;;
5323;SDS011;2684;48.154;11.538;2022-07-09T10:13:53;14.63;;;13.43;;
5323;SDS011;2684;48.154;11.538;2022-07-09T10:16:34;14.03;;;12.60;;
5323;SDS011;2684;48.154;11.538;2022-07-09T10:19:02;13.80;;;12.80;;
5323;SDS011;2684;48.154;11.538;2022-07-09T10:21:33;14.17;;;13.17;;
5323;SDS011;2684;48.154;11.538;2022-07-09T10:24:03;14.20;;;13.10;;
5323;SDS011;2684;48.154;11.538;2022-07-09T10:26:37;14.00;;;12.77;;
5323;SDS011;2684;48.154;11.538;2022-07-09T10:29:23;13.80;;;12.70;;
5323;SDS011;2684;48.154;11.538;2022-07-09T10:31:51;13.53;;;12.53;;
5323;SDS011;2684;48.154;11.538;2022-07-09T10:34:34;17.13;;;15.33;;
5323;SDS011;2684;48.154;11.538;2022-07-09T10:37:10;24.43;;;18.10;;
5323;SDS011;2684;48.154;11.538;2022-07-09T10:39:39;17.97;;;15.97;;
5323;SDS011;2684;48.154;11.538;2022-07-09T10:42:07;16.70;;;15.03;;
5323;SDS011;2684;48.154;11.538;2022-07-09T10:44:44;17.87;;;15.90;;
5323;SDS011;2684;48.154;11.538;2022-07-09T10:47:11;15.20;;;13.90;;
5323;SDS011;2684;48.154;11.538;2022-07-09T10:49:38;17.73;;;15.93;;
5323;SDS011;2684;48.154;11.538;2022-07-09T10:52:06;13.80;;;12.70;;
5323;SDS011;2684;48.154;11.538;2022-07-09T10:54:33;13.80;;;12.80;;
5323;SDS011;2684;48.154;11.538;2022-07-09T10:57:12;14.20;;;13.10;;
5323;SDS011;2684;48.154;11.538;2022-07-09T10:59:44;14.17;;;12.97;;
5323;SDS011;2684;48.154;11.538;2022-07-09T11:02:16;14.67;;;13.20;;
5323;SDS011;2684;48.154;11.538;2022-07-09T11:04:47;17.47;;;15.77;;
5323;SDS011;2684;48.154;11.538;2022-07-09T11:07:18;13.60;;;12.50;;
5323;SDS011;2684;48.154;11.538;2022-07-09T11:09:46;13.87;;;12.67;;
5323;SDS011;2684;48.154;11.538;2022-07-09T11:12:15;15.87;;;14.33;;
5323;SDS011;2684;48.154;11.538;2022-07-09T11:14:43;14.07;;;13.07;;
5323;SDS011;2684;48.154;11.538;2022-07-09T11:17:13;13.50;;;12.43;;
5323;SDS011;2684;48.154;11.538;2022-07-09T11:19:41;12.90;;;12.00;;
5323;SDS011;2684;48.154;11.538;2022-07-09T11:22:08;13.00;;;12.10;;
5323;SDS011;2684;48.154;11.538;2022-07-09T11:24:35;13.80;;;12.80;;
5323;SDS011;2684;48.154;11.538;2022-07-09T11:27:02;13.20;;;12.20;;
5323;SDS011;2684;48.154;11.538;2022-07-09T11:29:31;13.40;;;12.30;;
5323;SDS011;2684;48.154;11.538;2022-07-09T11:31:58;13.67;;;12.60;;
5323;SDS011;2684;48.154;11.538;2022-07-09T11:34:27;13.10;;;12.20;;
5323;SDS011;2684;48.154;11.538;2022-07-09T11:36:54;13.50;;;12.60;;
5323;SDS011;2684;48.154;11.538;2022-07-09T11:39:22;13.50;;;12.60;;
5323;SDS011;2684;48.154;11.538;2022-07-09T11:41:52;13.30;;;12.40;;
5323;SDS011;2684;48.154;11.538;2022-07-09T11:44:19;13.10;;;12.20;;
5323;SDS011;2684;48.154;11.538;2022-07-09T11:47:08;13.40;;;12.50;;
5323;SDS011;2684;48.154;11.538;2022-07-09T11:49:37;13.30;;;12.40;;
5323;SDS011;2684;48.154;11.538;2022-07-09T11:52:16;13.47;;;12.43;;
5323;SDS011;2684;48.154;11.538;2022-07-09T11:54:57;13.57;;;12.37;;
5323;SDS011;2684;48.154;11.538;2022-07-09T11:57:25;13.47;;;12.50;;
5323;SDS011;2684;48.154;11.538;2022-07-09T11:59:52;13.20;;;12.30;;
5323;SDS011;2684;48.154;11.538;2022-07-09T12:02:23;13.00;;;12.10;;
5323;SDS011;2684;48.154;11.538;2022-07-09T12:04:51;13.10;;;12.20;;
5323;SDS011;2684;48.154;11.538;2022-07-09T12:07:18;13.20;;;12.20;;
5323;SDS011;2684;48.154;11.538;2022-07-09T12:09:45;13.23;;;11.87;;
5323;SDS011;2684;48.154;11.538;2022-07-09T12:12:12;13.10;;;12.03;;
5323;SDS011;2684;48.154;11.538;2022-07-09T12:14:38;12.77;;;11.87;;
5323;SDS011;2684;48.154;11.538;2022-07-09T12:17:05;13.33;;;12.33;;
5323;SDS011;2684;48.154;11.538;2022-07-09T12:19:33;12.70;;;11.70;;
5323;SDS011;2684;48.154;11.538;2022-07-09T12:22:00;12.50;;;11.67;;
5323;SDS011;2684;48.154;11.538;2022-07-09T12:24:27;13.27;;;12.17;;
5323;SDS011;2684;48.154;11.538;2022-07-09T12:26:54;13.07;;;12.17;;
5323;SDS011;2684;48.154;11.538;2022-07-09T12:29:21;12.63;;;11.83;;
5323;SDS011;2684;48.154;11.538;2022-07-09T12:31:47;12.40;;;11.60;;
5323;SDS011;2684;48.154;11.538;2022-07-09T12:34:14;12.67;;;11.77;;
5323;SDS011;2684;48.154;11.538;2022-07-09T12:36:42;12.37;;;11.63;;
5323;SDS011;2684;48.154;11.538;2022-07-09T12:39:09;12.60;;;11.80;;
5323;SDS011;2684;48.154;11.538;2022-07-09T12:41:36;12.70;;;11.90;;
5323;SDS011;2684;48.154;11.538;2022-07-09T12:44:03;13.63;;;12.57;;
5323;SDS011;2684;48.154;11.538;2022-07-09T12:46:30;12.03;;;11.23;;
5323;SDS011;2684;48.154;11.538;2022-07-09T12:48:57;12.60;;;11.80;;
5323;SDS011;2684;48.154;11.538;2022-07-09T12:51:25;12.60;;;11.80;;
5323;SDS011;2684;48.154;11.538;2022-07-09T12:53:53;12.50;;;11.70;;
5323;SDS011;2684;48.154;11.538;2022-07-09T12:56:20;12.63;;;11.83;;
5323;SDS011;2684;48.154;11.538;2022-07-09T12:58:47;12.70;;;11.80;;
5323;SDS011;2684;48.154;11.538;2022-07-09T13:01:13;12.43;;;11.57;;
5323;SDS011;2684;48.154;11.538;2022-07-09T13:03:40;12.20;;;11.50;;
5323;SDS011;2684;48.154;11.538;2022-07-09T13:06:07;12.67;;;11.70;;
5323;SDS011;2684;48.154;11.538;2022-07-09T13:08:56;12.13;;;11.43;;
5323;SDS011;2684;48.154;11.538;2022-07-09T13:11:23;12.10;;;11.30;;
5323;SDS011;2684;48.154;11.538;2022-07-09T13:13:50;11.60;;;10.90;;
5323;SDS011;2684;48.154;11.538;2022-07-09T13:16:17;11.30;;;10.70;;
5323;SDS011;2684;48.154;11.538;2022-07-09T13:18:44;12.23;;;11.53;;
5323;SDS011;2684;48.154;11.538;2022-07-09T13:21:11;12.57;;;11.63;;
5323;SDS011;2684;48.154;11.538;2022-07-09T13:23:38;11.73;;;11.03;;
5323;SDS011;2684;48.154;11.538;2022-07-09T13:26:07;11.57;;;10.90;;
5323;SDS011;2684;48.154;11.538;2022-07-09T13:28:34;12.50;;;11.60;;
5323;SDS011;2684;48.154;11.538;2022-07-09T13:31:01;12.80;;;12.00;;
5323;SDS011;2684;48.154;11.538;2022-07-09T13:33:28;12.23;;;11.33;;
5323;SDS011;2684;48.154;11.538;2022-07-09T13:35:55;11.97;;;11.27;;
5323;SDS011;2684;48.154;11.538;2022-07-09T13:38:22;11.90;;;11.20;;
5323;SDS011;2684;48.154;11.538;2022-07-09T13:40:49;11.60;;;10.90;;
5323;SDS011;2684;48.154;11.538;2022-07-09T13:43:17;11.87;;;11.07;;
5323;SDS011;2684;48.154;11.538;2022-07-09T13:45:44;11.50;;;10.90;;
5323;SDS011;2684;48.154;11.538;2022-07-09T13:48:11;12.43;;;11.43;;
5323;SDS011;2684;48.154;11.538;2022-07-09T13:50:38;12.43;;;11.63;;
5323;SDS011;2684;48.154;11.538;2022-07-09T13:53:05;12.00;;;11.20;;
5323;SDS011;2684;48.154;11.538;2022-07-09T13:55:32;12.10;;;11.30;;
5323;SDS011;2684;48.154;11.538;2022-07-09T13:57:59;12.53;;;11.73;;
5323;SDS011;2684;48.154;11.538;2022-07-09T14:00:27;12.73;;;11.83;;
5323;SDS011;2684;48.154;11.538;2022-07-09T14:02:54;12.53;;;11.43;;
5323;SDS011;2684;48.154;11.538;2022-07-09T14:05:21;12.40;;;11.50;;
5323;SDS011;2684;48.154;11.538;2022-07-09T14:07:48;11.97;;;11.17;;
5323;SDS011;2684;48.154;11.538;2022-07-09T14:10:15;12.30;;;11.40;;
5323;SDS011;2684;48.154;11.538;2022-07-09T14:12:42;12.10;;;11.40;;
5323;SDS011;2684;48.154;11.538;2022-07-09T14:15:09;11.80;;;11.10;;
5323;SDS011;2684;48.154;11.538;2022-07-09T14:17:37;12.00;;;11.20;;
5323;SDS011;2684;48.154;11.538;2022-07-09T14:20:05;11.63;;;10.93;;
5323;SDS011;2684;48.154;11.538;2022-07-09T14:22:32;11.90;;;11.20;;
5323;SDS011;2684;48.154;11.538;2022-07-09T14:24:59;11.50;;;10.80;;
5323;SDS011;2684;48.154;11.538;2022-07-09T14:27:26;12.33;;;11.53;;
5323;SDS011;2684;48.154;11.538;2022-07-09T14:29:53;12.00;;;11.30;;
5323;SDS011;2684;48.154;11.538;2022-07-09T14:32:20;12.10;;;11.30;;
5323;SDS011;2684;48.154;11.538;2022-07-09T14:34:48;12.00;;;11.20;;
5323;SDS011;2684;48.154;11.538;2022-07-09T14:37:15;11.47;;;10.80;;
5323;SDS011;2684;48.154;11.538;2022-07-09T14:39:42;11.90;;;11.20;;
5323;SDS011;2684;48.154;11.538;2022-07-09T14:42:09;12.30;;;11.40;;
5323;SDS011;2684;48.154;11.538;2022-07-09T14:44:36;11.70;;;11.00;;
5323;SDS011;2684;48.154;11.538;2022-07-09T14:47:02;12.50;;;11.70;;